Time;durP1;ratioP1;P1;durP2;ratioP2;P2;SDS_P1;SDS_P2;PMS_P1;PMS_P2;Temp;Humidity;BMP_temperature;BMP_pressure;BME280_temperature;BME280_humidity;BME280_pressure;Samples;Min_cycle;Max_cycle;Signal;HPM_P1;HPM_P2
2023/07/11 08:57:42;;;;;;;8.02;2.33;;;;;;;24.48;51.37;101072.31;5092583;27;20392;-71
2023/07/11 09:00:15;;;;;;;5.88;2.17;;;;;;;24.54;51.67;101071.06;5103892;28;20028;-65
2023/07/11 09:02:52;;;;;;;8.63;2.50;;;;;;;24.53;51.96;101068.59;5128661;27;20023;-68
2023/07/11 09:05:59;;;;;;;6.95;2.10;;;;;;;24.63;52.36;101070.34;5101088;27;20016;-69
2023/07/11 09:08:25;;;;;;;7.90;2.28;;;;;;;24.72;51.89;101065.69;5108177;28;20482;-67
2023/07/11 09:11:04;;;;;;;8.52;2.38;;;;;;;24.82;52.38;101065.41;5109031;28;20084;-66
2023/07/11 09:13:47;;;;;;;8.68;2.40;;;;;;;24.80;51.68;101062.13;5109821;28;20707;-66
2023/07/11 09:16:29;;;;;;;9.18;2.40;;;;;;;24.79;51.24;101060.53;5090042;28;20090;-65
2023/07/11 09:19:15;;;;;;;7.15;2.10;;;;;;;24.93;52.02;101060.44;5089887;28;20024;-68
2023/07/11 09:21:50;;;;;;;12.18;2.53;;;;;;;25.12;51.19;101060.19;5129825;28;20062;-69
2023/07/11 09:24:30;;;;;;;8.35;2.42;;;;;;;25.15;49.66;101065.06;5126716;27;20034;-69
2023/07/11 09:27:01;;;;;;;7.85;2.40;;;;;;;25.24;50.36;101049.34;5089428;28;20039;-65
2023/07/11 09:29:28;;;;;;;9.25;2.33;;;;;;;25.28;50.77;101053.09;5098241;28;20035;-69
2023/07/11 09:31:57;;;;;;;9.80;2.40;;;;;;;25.26;50.74;101047.06;5115682;27;20046;-68
2023/07/11 09:34:24;;;;;;;7.82;2.55;;;;;;;25.35;50.63;101054.59;5118179;27;20032;-70
2023/07/11 09:36:51;;;;;;;5.38;2.15;;;;;;;25.37;50.10;101044.84;5089268;28;20035;-68
2023/07/11 09:39:29;;;;;;;9.82;2.67;;;;;;;25.31;49.38;101046.13;5089117;28;20032;-66
2023/07/11 09:42:02;;;;;;;6.57;2.40;;;;;;;25.32;49.14;101052.47;5089869;28;20028;-66
2023/07/11 09:44:27;;;;;;;7.38;2.17;;;;;;;25.33;48.89;101049.38;5093621;28;20061;-70
2023/07/11 09:46:53;;;;;;;7.50;2.60;;;;;;;25.34;48.20;101053.78;5103829;28;20036;-65
2023/07/11 09:49:24;;;;;;;5.70;2.38;;;;;;;25.38;49.13;101048.41;5114425;28;20056;-65
2023/07/11 09:51:55;;;;;;;7.15;2.22;;;;;;;25.46;49.24;101056.75;5109561;28;20035;-65
2023/07/11 09:54:22;;;;;;;;;;;;;;;25.55;49.97;101050.44;5093306;28;20363;-69
2023/07/11 09:56:49;;;;;;;8.25;2.42;;;;;;;25.60;48.98;101048.31;5106525;28;19912;-67
2023/07/11 09:59:16;;;;;;;4.95;2.45;;;;;;;25.61;48.83;101044.41;5102102;28;20099;-64
2023/07/11 10:01:42;;;;;;;6.40;2.55;;;;;;;25.59;49.21;101040.31;5085660;28;20454;-67
2023/07/11 10:04:20;;;;;;;9.50;2.60;;;;;;;25.52;48.93;101049.13;5103104;28;20473;-65
2023/07/11 10:06:56;;;;;;;6.65;2.40;;;;;;;25.50;49.10;101045.03;5108175;28;20391;-66
2023/07/11 10:09:24;;;;;;;5.85;2.20;;;;;;;25.53;49.16;101044.41;5095266;28;20020;-67
2023/07/11 10:11:58;;;;;;;8.38;2.60;;;;;;;25.55;49.07;101036.59;5094581;28;20076;-67
2023/07/11 10:14:33;;;;;;;8.05;2.15;;;;;;;25.58;49.70;101042.28;5099733;28;20466;-65
2023/07/11 10:16:59;;;;;;;11.70;3.15;;;;;;;25.68;49.58;101040.34;5115843;28;20027;-66
2023/07/11 10:19:26;;;;;;;8.52;2.63;;;;;;;25.75;49.64;101024.06;5108567;28;20020;-66
2023/07/11 10:21:52;;;;;;;11.07;2.70;;;;;;;25.81;49.20;101028.31;5095556;28;20102;-65
2023/07/11 10:24:22;;;;;;;10.45;2.42;;;;;;;25.82;48.95;101019.66;5093208;28;20162;-66
2023/07/11 10:26:51;;;;;;;5.30;2.47;;;;;;;25.92;48.21;101024.09;5089552;28;20114;-65
2023/07/11 10:29:20;;;;;;;11.50;2.60;;;;;;;25.97;48.99;101028.66;5094172;28;20020;-67
2023/07/11 10:31:57;;;;;;;8.07;2.63;;;;;;;25.89;48.03;101016.44;5085840;28;20040;-66
2023/07/11 10:34:31;;;;;;;7.60;2.10;;;;;;;25.94;49.05;101027.34;5081947;28;20028;-65
2023/07/11 10:37:04;;;;;;;8.65;2.42;;;;;;;25.93;48.53;101011.84;5084728;28;20344;-65
2023/07/11 10:39:51;;;;;;;8.35;2.65;;;;;;;25.99;49.34;101010.56;5083721;28;20177;-67
2023/07/11 10:42:31;;;;;;;9.07;2.40;;;;;;;26.09;48.68;101005.84;5084661;28;20034;-66
2023/07/11 10:45:17;;;;;;;6.47;2.50;;;;;;;26.17;48.25;101008.63;5095298;28;20027;-66
2023/07/11 10:47:59;;;;;;;6.82;2.60;;;;;;;26.30;48.02;100994.88;5094618;28;20020;-67
2023/07/11 10:50:38;;;;;;;5.97;2.33;;;;;;;26.30;46.98;101008.75;5085303;28;20088;-66
2023/07/11 10:53:15;;;;;;;7.47;2.47;;;;;;;26.32;46.71;100998.97;5093719;28;20028;-65
2023/07/11 10:55:48;;;;;;;7.22;2.47;;;;;;;26.44;47.85;101000.28;5092999;28;20471;-67
2023/07/11 10:58:17;;;;;;;9.48;2.50;;;;;;;26.40;47.48;101002.88;5093557;28;20472;-66
2023/07/11 11:00:43;;;;;;;7.53;2.70;;;;;;;26.40;46.76;100990.97;5092440;28;20077;-67
2023/07/11 11:03:36;;;;;;;7.57;2.65;;;;;;;26.43;47.90;100987.53;5093275;28;20358;-66
2023/07/11 11:06:23;;;;;;;7.38;2.55;;;;;;;26.56;46.90;100988.47;5090652;28;20032;-67
2023/07/11 11:08:55;;;;;;;8.20;2.20;;;;;;;26.67;46.21;100984.25;5076817;28;20039;-65
2023/07/11 11:11:52;;;;;;;5.50;2.38;;;;;;;26.82;45.09;100980.91;5073697;28;20032;-70
2023/07/11 11:14:27;;;;;;;6.32;1.98;;;;;;;26.82;45.04;100980.91;5083642;28;20376;-68
2023/07/11 11:17:10;;;;;;;5.82;2.40;;;;;;;26.89;45.31;100974.88;5092760;28;20024;-67
2023/07/11 11:19:55;;;;;;;7.75;2.47;;;;;;;26.99;45.42;100968.09;5073842;28;20400;-67
2023/07/11 11:22:52;;;;;;;6.47;2.50;;;;;;;27.01;45.13;100968.59;5092013;28;20038;-68
2023/07/11 11:25:20;;;;;;;6.20;2.20;;;;;;;27.06;44.96;100971.19;5088994;28;20081;-68
2023/07/11 11:27:54;;;;;;;11.40;2.97;;;;;;;27.10;45.13;100960.22;5086201;28;20032;-68
2023/07/11 11:30:49;;;;;;;8.40;2.47;;;;;;;27.00;44.15;100956.66;5110353;28;20038;-67
2023/07/11 11:33:52;;;;;;;7.07;2.15;;;;;;;27.15;45.50;100951.69;5100845;28;20024;-67
2023/07/11 11:36:42;;;;;;;10.70;2.45;;;;;;;27.32;44.62;100950.78;5090005;28;20495;-67
2023/07/11 11:39:19;;;;;;;10.10;2.45;;;;;;;27.34;44.36;100946.56;5091707;28;20024;-67
2023/07/11 11:41:56;;;;;;;8.07;2.28;;;;;;;27.37;44.90;100947.81;5110679;28;20032;-67
2023/07/11 11:44:45;;;;;;;5.28;2.30;;;;;;;27.67;44.47;100940.25;5087415;28;20028;-76
2023/07/11 11:47:12;;;;;;;6.25;2.75;;;;;;;27.69;42.11;100940.72;5073167;28;20035;-66
2023/07/11 11:49:39;;;;;;;7.00;2.55;;;;;;;27.62;42.08;100940.47;5072894;28;20470;-66
2023/07/11 11:52:06;;;;;;;6.53;2.63;;;;;;;27.66;42.44;100929.47;5076383;28;20032;-68
2023/07/11 11:54:42;;;;;;;5.45;2.10;;;;;;;27.75;42.86;100931.03;5071788;28;20455;-67
2023/07/11 11:57:17;;;;;;;9.10;2.40;;;;;;;27.84;42.35;100932.91;5072421;28;20040;-66
2023/07/11 11:59:44;;;;;;;6.88;2.45;;;;;;;28.04;42.83;100929.31;5076362;28;20474;-67
2023/07/11 12:02:14;;;;;;;5.93;2.50;;;;;;;28.11;42.56;100932.38;5076584;28;20037;-67
2023/07/11 12:04:57;;;;;;;7.18;2.35;;;;;;;28.29;43.19;100921.03;5088501;28;20377;-67
2023/07/11 12:07:29;;;;;;;5.03;2.25;;;;;;;28.34;42.75;100923.63;5082553;28;20176;-69
2023/07/11 12:09:56;;;;;;;6.38;2.35;;;;;;;28.36;42.04;100923.28;5074529;28;20054;-68
2023/07/11 12:12:45;;;;;;;6.45;2.55;;;;;;;28.25;41.87;100920.13;5078063;28;20032;-67
2023/07/11 12:15:10;;;;;;;8.30;2.30;;;;;;;28.19;42.83;100910.38;5077129;28;20032;-69
2023/07/11 12:17:38;;;;;;;11.77;2.20;;;;;;;28.17;42.86;100909.88;5082689;28;20436;-68
2023/07/11 12:20:06;;;;;;;5.18;2.55;;;;;;;28.23;42.94;100912.13;5090738;28;20273;-68
2023/07/11 12:22:37;;;;;;;6.47;2.42;;;;;;;28.30;43.60;100911.53;5090244;28;20025;-67
2023/07/11 12:25:05;;;;;;;8.18;2.63;;;;;;;28.43;43.08;100902.06;5080650;28;20028;-69
2023/07/11 12:27:31;;;;;;;5.65;2.30;;;;;;;28.73;44.06;100904.69;5081989;28;20024;-67
2023/07/11 12:30:03;;;;;;;9.77;2.38;;;;;;;28.75;43.55;100898.75;5074262;28;20039;-70
2023/07/11 12:32:31;;;;;;;5.82;2.25;;;;;;;28.65;41.87;100894.44;5086192;28;20348;-67
2023/07/11 12:35:17;;;;;;;7.45;2.33;;;;;;;28.67;42.65;100897.72;5092565;28;20024;-71
2023/07/11 12:37:51;;;;;;;7.40;2.28;;;;;;;28.77;42.40;100891.66;5087373;28;20040;-70
2023/07/11 12:40:27;;;;;;;4.75;2.20;;;;;;;28.89;42.50;100890.03;5070274;28;20063;-68
2023/07/11 12:42:55;;;;;;;6.90;2.50;;;;;;;28.85;43.01;100884.34;5091369;28;20028;-68
2023/07/11 12:45:26;;;;;;;6.68;2.53;;;;;;;29.14;42.79;100886.06;5091713;28;20483;-67
2023/07/11 12:48:27;;;;;;;5.55;2.40;;;;;;;29.49;42.47;100876.38;5091628;28;20024;-66
2023/07/11 12:50:55;;;;;;;5.85;2.50;;;;;;;29.41;39.95;100874.53;5060988;28;20090;-68
2023/07/11 12:53:21;;;;;;;7.32;2.70;;;;;;;29.42;40.87;100876.16;5092804;28;20062;-69
2023/07/11 12:55:49;;;;;;;8.00;2.28;;;;;;;29.33;40.26;100867.94;5090944;28;20044;-66
2023/07/11 12:58:23;;;;;;;3.97;2.33;;;;;;;29.28;40.37;100871.78;5081081;28;20029;-70
2023/07/11 13:00:51;;;;;;;7.63;2.38;;;;;;;29.06;40.47;100869.47;5085739;28;20028;-69
2023/07/11 13:03:30;;;;;;;4.55;2.50;;;;;;;29.02;40.66;100863.81;5085279;28;20032;-68
2023/07/11 13:05:58;;;;;;;6.95;2.20;;;;;;;29.22;40.64;100856.47;5092626;28;20074;-68
2023/07/11 13:08:29;;;;;;;5.80;2.45;;;;;;;29.43;40.41;100864.66;5089741;28;20046;-69
2023/07/11 13:10:56;;;;;;;5.88;2.50;;;;;;;29.60;40.75;100851.59;5090899;28;20028;-68
2023/07/11 13:13:24;;;;;;;7.88;2.45;;;;;;;29.66;40.42;100847.38;5088165;28;20078;-69
2023/07/11 13:15:49;;;;;;;11.65;2.65;;;;;;;29.63;40.23;100848.09;5079797;28;20055;-68
2023/07/11 13:18:27;;;;;;;5.03;2.50;;;;;;;29.35;40.73;100848.91;5088637;28;20486;-67
2023/07/11 13:20:53;;;;;;;8.07;2.42;;;;;;;29.47;41.44;100837.69;5092248;28;20135;-67
2023/07/11 13:23:19;;;;;;;6.05;2.65;;;;;;;29.74;41.21;100838.03;5071356;28;20484;-66
2023/07/11 13:25:44;;;;;;;5.43;2.22;;;;;;;29.99;39.33;100829.56;5076313;28;20593;-67
2023/07/11 13:28:21;;;;;;;9.95;2.55;;;;;;;30.11;39.37;100832.28;5090319;28;20476;-67
2023/07/11 13:30:59;;;;;;;6.22;2.53;;;;;;;30.13;39.81;100832.72;5082859;28;20515;-68
2023/07/11 13:33:38;;;;;;;5.47;2.60;;;;;;;30.26;39.95;100830.66;5076926;28;20111;-67
2023/07/11 13:36:15;;;;;;;10.65;2.70;;;;;;;30.13;39.28;100827.13;5073152;28;20020;-67
2023/07/11 13:38:45;;;;;;;7.40;2.47;;;;;;;29.94;39.18;100835.41;5090414;28;20028;-66
2023/07/11 13:41:28;;;;;;;6.88;2.45;;;;;;;29.79;39.76;100829.41;5085669;28;20016;-66
2023/07/11 13:43:58;;;;;;;5.05;2.33;;;;;;;29.92;39.16;100832.16;5082993;28;20032;-66
2023/07/11 13:46:29;;;;;;;10.13;2.20;;;;;;;29.96;38.41;100831.09;5079759;28;20043;-65
2023/07/11 13:48:54;;;;;;;5.72;2.15;;;;;;;30.01;38.33;100825.25;5081840;28;20474;-65
2023/07/11 13:51:31;;;;;;;6.38;2.30;;;;;;;30.23;39.17;100823.81;5095903;28;20031;-65
2023/07/11 13:54:07;;;;;;;4.88;2.17;;;;;;;30.28;38.87;100817.16;5090008;28;20043;-65
2023/07/11 13:56:33;;;;;;;4.95;2.25;;;;;;;30.23;38.58;100815.44;5089666;28;20055;-66
2023/07/11 13:58:58;;;;;;;4.72;2.10;;;;;;;30.30;38.29;100808.41;5081556;28;20028;-66
2023/07/11 14:01:23;;;;;;;3.40;1.90;;;;;;;30.27;38.55;100804.38;5073829;28;20032;-66
2023/07/11 14:03:51;;;;;;;13.55;2.58;;;;;;;30.25;39.50;100817.06;5079667;28;20021;-67
2023/07/11 14:06:18;;;;;;;8.05;2.30;;;;;;;30.13;37.86;100813.19;5093664;28;20063;-66
2023/07/11 14:08:44;;;;;;;5.43;2.10;;;;;;;29.97;38.67;100804.81;5094348;28;20073;-69
2023/07/11 14:11:23;;;;;;;8.65;2.33;;;;;;;29.84;38.93;100820.81;5086060;28;20020;-73
2023/07/11 14:13:48;;;;;;;5.55;1.98;;;;;;;29.91;39.47;100802.63;5091646;28;20077;-66
2023/07/11 14:16:14;;;;;;;4.63;2.50;;;;;;;29.97;40.02;100804.00;5084883;28;20024;-66
2023/07/11 14:18:39;;;;;;;5.30;2.38;;;;;;;30.06;39.28;100807.44;5085917;28;20033;-66
2023/07/11 14:21:05;;;;;;;4.75;2.20;;;;;;;30.22;39.27;100801.84;5088286;28;20477;-67
2023/07/11 14:23:31;;;;;;;7.25;2.63;;;;;;;30.14;38.56;100809.22;5085104;28;20024;-66
2023/07/11 14:25:56;;;;;;;4.97;2.10;;;;;;;30.04;39.62;100804.19;5091464;28;20030;-66
2023/07/11 14:28:22;;;;;;;5.53;2.33;;;;;;;30.00;38.90;100811.63;5074933;28;20027;-67
2023/07/11 14:30:48;;;;;;;5.70;2.33;;;;;;;29.84;39.24;100798.50;5079340;28;20027;-67
2023/07/11 14:33:19;;;;;;;5.05;2.10;;;;;;;29.77;39.96;100801.06;5092248;28;20363;-67
2023/07/11 14:35:46;;;;;;;4.55;1.95;;;;;;;29.69;40.78;100800.06;5084146;28;20029;-67
2023/07/11 14:38:17;;;;;;;10.43;2.60;;;;;;;29.57;40.71;100807.69;5086849;28;20107;-67
2023/07/11 14:40:43;;;;;;;5.82;2.60;;;;;;;29.51;41.57;100796.78;5091309;28;20035;-67
2023/07/11 14:43:14;;;;;;;7.25;2.47;;;;;;;29.52;41.58;100794.81;5093679;28;20020;-67
2023/07/11 14:45:40;;;;;;;7.93;2.58;;;;;;;29.56;40.35;100792.13;5081395;28;20060;-67
2023/07/11 14:48:16;;;;;;;6.97;2.30;;;;;;;29.39;41.01;100794.06;5077631;28;20108;-67
2023/07/11 14:50:42;;;;;;;6.45;2.50;;;;;;;29.33;40.97;100785.16;5076668;28;20028;-66
2023/07/11 14:53:38;;;;;;;5.78;2.70;;;;;;;29.53;41.10;100782.47;5078036;28;20347;-68
2023/07/11 14:56:15;;;;;;;6.70;2.20;;;;;;;29.79;41.41;100792.38;5076259;28;20040;-66
2023/07/11 14:58:47;;;;;;;4.78;2.40;;;;;;;29.95;39.95;100782.03;5079433;28;20081;-66
2023/07/11 15:01:12;;;;;;;7.68;2.60;;;;;;;30.17;39.96;100777.00;5075297;28;20078;-65
2023/07/11 15:03:39;;;;;;;5.63;2.30;;;;;;;30.33;41.41;100775.03;5079452;28;20397;-66
2023/07/11 15:06:04;;;;;;;7.65;1.95;;;;;;;30.30;40.64;100775.75;5092101;28;20031;-68
2023/07/11 15:08:30;;;;;;;5.10;2.00;;;;;;;30.26;39.79;100779.63;5082446;28;20107;-65
2023/07/11 15:11:22;;;;;;;4.53;2.03;;;;;;;30.01;40.66;100768.63;5085689;28;20463;-67
2023/07/11 15:13:47;;;;;;;6.45;1.98;;;;;;;30.10;42.41;100766.47;5078173;28;20025;-70
2023/07/11 15:16:12;;;;;;;8.50;2.30;;;;;;;30.17;40.29;100761.06;5073355;28;20032;-68
2023/07/11 15:18:38;;;;;;;7.53;2.08;;;;;;;30.26;40.07;100766.47;5077138;28;20035;-69
2023/07/11 15:21:03;;;;;;;9.10;2.15;;;;;;;30.29;40.39;100765.75;5077220;28;20067;-69
2023/07/11 15:23:28;;;;;;;4.68;1.90;;;;;;;30.38;40.76;100755.19;5076085;28;20024;-69
2023/07/11 15:25:54;;;;;;;4.45;2.00;;;;;;;30.39;40.17;100761.56;5073879;28;20515;-67
2023/07/11 15:28:27;;;;;;;7.70;2.38;;;;;;;30.35;40.18;100755.13;5072972;28;20080;-67
2023/07/11 15:30:55;;;;;;;4.78;2.60;;;;;;;30.39;41.08;100751.22;5089016;28;20463;-67
2023/07/11 15:33:28;;;;;;;4.32;2.20;;;;;;;30.42;40.95;100746.13;5093588;28;20035;-66
2023/07/11 15:35:59;;;;;;;4.35;1.88;;;;;;;30.36;39.98;100739.97;5077757;28;20073;-67
2023/07/11 15:38:25;;;;;;;6.05;1.95;;;;;;;30.45;41.06;100746.19;5081421;28;20097;-66
2023/07/11 15:40:52;;;;;;;4.85;1.90;;;;;;;30.60;40.50;100749.31;5091205;28;20062;-66
2023/07/11 15:43:33;;;;;;;6.10;2.17;;;;;;;30.61;40.00;100739.78;5093764;28;20056;-67
2023/07/11 15:46:00;;;;;;;6.68;2.10;;;;;;;30.52;40.14;100737.19;5077323;28;20383;-69
2023/07/11 15:48:25;;;;;;;5.65;2.00;;;;;;;30.83;40.02;100730.69;5074719;28;20081;-67
2023/07/11 15:50:51;;;;;;;6.90;2.00;;;;;;;31.28;40.00;100729.22;5083758;28;20409;-67
2023/07/11 15:53:17;;;;;;;6.13;1.95;;;;;;;31.39;39.03;100732.22;5078676;28;20503;-68
2023/07/11 15:55:43;;;;;;;8.25;2.20;;;;;;;31.44;38.64;100722.72;5072333;28;20170;-66
2023/07/11 15:58:17;;;;;;;8.15;2.00;;;;;;;31.42;39.74;100717.50;5090408;28;20023;-66
2023/07/11 16:00:43;;;;;;;5.60;2.13;;;;;;;31.26;38.90;100720.38;5075863;28;20024;-65
2023/07/11 16:03:23;;;;;;;6.85;2.20;;;;;;;30.94;38.96;100714.16;5079934;28;20023;-67
2023/07/11 16:05:50;;;;;;;11.70;2.67;;;;;;;30.57;39.89;100709.78;5082950;28;20119;-66
